Algosea — CFN4229 — position and weather

sailwx.info

Track history (hours):
 
Tides and Currents Weather Stations Pressure Air Temp Water Temp Dewpoint Dewpoint Depression Visibility Wind Speed Wind Dir Waves Ship Positions

Algosea

Last reported at 2017-Nov-08 10:13 UTC. Time now 2017-Nov-18 02:56 UTC.
Position N 45°08' W 074°27'.
Warning: this ship's position is 9 days out of date.

Length 144 m; draft 5.8 m.

Type: Ship. MMSI: 316006868.

Date/timePositionNaut miles runAvg speedWind from/ knotsBaromVisibWave heightAir tempDewpointWater temp
2017-Nov-08 10:13N 45°08' W 074°27'710.3
2017-Nov-08 09:30N 45°12' W 074°18'510.5
2017-Nov-08 09:00N 45°14' W 074°12'5 9.2
2017-Nov-08 08:30N 45°13' W 074°05'4 8.8
2017-Nov-08 08:00N 45°15' W 073°59'4 8.7
2017-Nov-08 07:31N 45°18' W 073°56'0 1.0
2017-Nov-08 07:00N 45°19' W 073°55'0 0.9
2017-Nov-08 06:31N 45°19' W 073°55'1 1.1
2017-Nov-08 06:01N 45°20' W 073°55'4 8.2
2017-Nov-08 05:31N 45°22' W 073°50'5 9.6
2017-Nov-08 05:01N 45°24' W 073°44'3 7.0
2017-Nov-08 04:31N 45°24' W 073°39'3 6.3
2017-Nov-08 04:01N 45°24' W 073°35'1 1.4
2017-Nov-08 03:31N 45°24' W 073°34'2 4.4
2017-Nov-08 03:01N 45°25' W 073°31'3 6.8
2017-Nov-08 02:30N 45°28' W 073°30'2 2.3
2017-Nov-08 01:50N 45°30' W 073°31'1 1.4
2017-Nov-08 01:04N 45°31' W 073°31'0 2.1
2017-Nov-08 00:59N 45°31' W 073°31'0 0.0
2017-Nov-06 22:39N 45°31' W 073°32'1 5.8
2017-Nov-06 22:28N 45°30' W 073°31'1 0.8
2017-Nov-06 21:47N 45°30' W 073°31'1 2.0
2017-Nov-06 21:27N 45°29' W 073°31'2 4.4
2017-Nov-06 21:01N 45°27' W 073°30'2 3.8
2017-Nov-06 20:24N 45°25' W 073°31'  
Track history (hours):
 
Tides and Currents Weather Stations Pressure Air Temp Water Temp Dewpoint Dewpoint Depression Visibility Wind Speed Wind Dir Waves Ship Positions

Algosea

Last reported at 2017-Nov-08 10:13 UTC. Time now 2017-Nov-18 02:56 UTC.
Position N 45°08' W 074°27'.
Warning: this ship's position is 9 days out of date.

Length 144 m; draft 5.8 m.

Type: Ship. MMSI: 316006868.

Date/timePositionNaut miles runAvg speedWind from/ knotsBaromVisibWave heightAir tempDewpointWater temp
2017-Nov-08 10:13N 45°08' W 074°27'710.3
2017-Nov-08 09:30N 45°12' W 074°18'510.5
2017-Nov-08 09:00N 45°14' W 074°12'5 9.2
2017-Nov-08 08:30N 45°13' W 074°05'4 8.8
2017-Nov-08 08:00N 45°15' W 073°59'4 8.7
2017-Nov-08 07:31N 45°18' W 073°56'0 1.0
2017-Nov-08 07:00N 45°19' W 073°55'0 0.9
2017-Nov-08 06:31N 45°19' W 073°55'1 1.1
2017-Nov-08 06:01N 45°20' W 073°55'4 8.2
2017-Nov-08 05:31N 45°22' W 073°50'5 9.6
2017-Nov-08 05:01N 45°24' W 073°44'3 7.0
2017-Nov-08 04:31N 45°24' W 073°39'3 6.3
2017-Nov-08 04:01N 45°24' W 073°35'1 1.4
2017-Nov-08 03:31N 45°24' W 073°34'2 4.4
2017-Nov-08 03:01N 45°25' W 073°31'3 6.8
2017-Nov-08 02:30N 45°28' W 073°30'2 2.3
2017-Nov-08 01:50N 45°30' W 073°31'1 1.4
2017-Nov-08 01:04N 45°31' W 073°31'0 2.1
2017-Nov-08 00:59N 45°31' W 073°31'0 0.0
2017-Nov-06 22:39N 45°31' W 073°32'1 5.8
2017-Nov-06 22:28N 45°30' W 073°31'1 0.8
2017-Nov-06 21:47N 45°30' W 073°31'1 2.0
2017-Nov-06 21:27N 45°29' W 073°31'2 4.4
2017-Nov-06 21:01N 45°27' W 073°30'2 3.8
2017-Nov-06 20:24N 45°25' W 073°31'  

Dump ship's entire track history